Time;durP1;ratioP1;P1;durP2;ratioP2;P2;SDS_P1;SDS_P2;PMS_P1;PMS_P2;Temp;Humidity;BMP_temperature;BMP_pressure;BME280_temperature;BME280_humidity;BME280_pressure;Samples;Min_cycle;Max_cycle;Signal;HPM_P1;HPM_P2
2024/03/13 00:00:00;;;;;;;6.22;3.92;;;;;;;11.49;84.26;99047.47;5032236;28;20021;-27
2024/03/13 00:02:28;;;;;;;5.70;4.07;;;;;;;11.66;83.73;99051.09;5031739;28;20105;-27
2024/03/13 00:04:55;;;;;;;6.38;4.18;;;;;;;11.47;83.70;99046.88;5030474;28;20021;-27
2024/03/13 00:07:21;;;;;;;5.63;3.90;;;;;;;11.47;83.19;99039.69;5029500;28;20018;-27
2024/03/13 00:09:46;;;;;;;5.47;3.92;;;;;;;11.61;82.70;99042.97;5030584;28;20075;-27
2024/03/13 00:12:15;;;;;;;4.50;3.25;;;;;;;11.27;84.60;99033.81;5046655;28;20459;-27
2024/03/13 00:14:41;;;;;;;6.55;3.58;;;;;;;11.26;85.97;99038.34;5050879;28;20437;-26
2024/03/13 00:17:07;;;;;;;5.55;3.75;;;;;;;11.38;83.98;99046.38;5051036;28;20031;-26
2024/03/13 00:19:33;;;;;;;5.47;3.25;;;;;;;11.60;84.36;99036.03;5051648;28;20040;-27
2024/03/13 00:22:02;;;;;;;4.20;3.00;;;;;;;11.27;83.95;99036.47;5050512;28;20021;-28
2024/03/13 00:24:27;;;;;;;4.15;2.95;;;;;;;11.18;83.61;99028.00;5051919;28;20024;-26
2024/03/13 00:26:56;;;;;;;4.72;3.42;;;;;;;11.29;84.37;99029.91;5051431;28;20090;-27
2024/03/13 00:29:27;;;;;;;5.93;3.08;;;;;;;11.41;83.67;99029.13;5051312;28;20105;-27
2024/03/13 00:31:53;;;;;;;5.40;3.28;;;;;;;11.23;84.65;99033.47;5050346;28;20044;-26
2024/03/13 00:34:19;;;;;;;4.80;3.05;;;;;;;11.40;82.44;99022.16;5051166;28;20024;-26
2024/03/13 00:36:45;;;;;;;3.85;2.70;;;;;;;11.37;83.48;99028.78;5051616;28;20021;-27
2024/03/13 00:39:11;;;;;;;4.00;2.70;;;;;;;11.40;83.57;99019.50;5051684;28;20147;-27
2024/03/13 00:41:38;;;;;;;4.00;2.92;;;;;;;11.59;82.12;99021.06;5051865;28;20031;-39
2024/03/13 00:44:05;;;;;;;4.00;2.85;;;;;;;11.73;81.13;99019.84;5051956;28;20025;-39
2024/03/13 00:46:30;;;;;;;4.28;3.03;;;;;;;11.47;82.27;99017.56;5051617;28;20159;-39
2024/03/13 00:48:57;;;;;;;4.28;2.75;;;;;;;11.56;81.65;99013.53;5051421;28;20123;-39
2024/03/13 00:51:22;;;;;;;3.88;2.72;;;;;;;11.86;80.18;99012.66;5051644;28;20025;-40
2024/03/13 00:53:48;;;;;;;3.83;2.92;;;;;;;11.90;79.42;99006.69;5051423;28;20028;-39
2024/03/13 00:56:15;;;;;;;3.95;2.78;;;;;;;11.70;79.56;99008.81;5051442;28;20591;-39
2024/03/13 00:58:42;;;;;;;4.05;2.50;;;;;;;11.56;80.87;99002.88;5051246;28;20415;-39
2024/03/13 01:01:11;;;;;;;2.85;2.50;;;;;;;11.75;79.73;98990.31;5051202;28;20029;-39
2024/03/13 01:03:37;;;;;;;6.50;2.80;;;;;;;11.49;81.07;99008.28;5051480;28;20029;-39
2024/03/13 01:06:04;;;;;;;3.40;2.40;;;;;;;11.80;78.84;99000.25;5051075;28;20116;-39
2024/03/13 01:08:29;;;;;;;3.28;2.58;;;;;;;11.62;79.49;99009.16;5050949;28;20477;-39
2024/03/13 01:10:55;;;;;;;5.60;2.58;;;;;;;11.61;79.92;99004.84;5051215;28;20040;-39
2024/03/13 01:13:21;;;;;;;4.97;2.70;;;;;;;11.67;79.43;98998.59;5051226;28;20021;-39
2024/03/13 01:15:47;;;;;;;4.22;2.70;;;;;;;11.69;78.41;99005.34;5051151;28;20108;-39
2024/03/13 01:18:12;;;;;;;3.72;2.65;;;;;;;11.89;77.66;98990.88;5051352;28;20461;-39
2024/03/13 01:20:39;;;;;;;4.68;2.53;;;;;;;11.86;77.97;98999.34;5048398;28;20056;-39
2024/03/13 01:23:05;;;;;;;6.30;3.00;;;;;;;11.84;78.36;98996.09;5031252;28;20112;-40
2024/03/13 01:25:31;;;;;;;2.92;2.42;;;;;;;11.79;78.39;98994.13;5031700;28;20134;-39
2024/03/13 01:27:56;;;;;;;3.75;2.40;;;;;;;11.62;80.40;98995.84;5030903;28;20128;-39
2024/03/13 01:30:23;;;;;;;4.18;2.70;;;;;;;11.63;79.35;98987.63;5031150;28;20040;-40
2024/03/13 01:32:49;;;;;;;3.90;2.60;;;;;;;11.20;80.32;98990.50;5031042;28;20469;-40
2024/03/13 01:35:16;;;;;;;6.05;2.67;;;;;;;11.27;80.33;98989.38;5031307;28;20064;-39
2024/03/13 01:37:58;;;;;;;3.20;2.70;;;;;;;11.74;77.77;98992.13;5031064;28;20044;-39
2024/03/13 01:57:14;;;;;;;4.57;2.28;;;;;;;11.78;76.94;98987.16;5051209;28;20043;-39
2024/03/13 02:02:22;;;;;;;4.32;2.38;;;;;;;11.82;75.71;98985.69;5050635;28;20028;-36
2024/03/13 02:02:32;;;;;;;3.15;2.38;;;;;;;12.03;75.61;98989.66;5031465;28;20025;-39
2024/03/13 02:04:59;;;;;;;4.15;2.13;;;;;;;12.18;74.48;98986.53;5030978;28;20420;-39
2024/03/13 02:07:24;;;;;;;3.25;1.92;;;;;;;12.05;74.46;98984.09;5031159;28;20395;-39
2024/03/13 02:09:50;;;;;;;6.65;2.20;;;;;;;12.08;74.58;98979.09;5030871;28;20031;-40
2024/03/13 02:12:16;;;;;;;6.13;2.50;;;;;;;11.91;75.45;98986.97;5030693;28;20040;-40
2024/03/13 02:14:42;;;;;;;4.13;2.00;;;;;;;11.81;76.74;98983.25;5030634;28;20021;-40
2024/03/13 02:17:08;;;;;;;3.70;2.50;;;;;;;11.77;77.36;98984.75;5034242;28;20381;-38
2024/03/13 02:19:36;;;;;;;3.85;2.47;;;;;;;11.75;77.26;98979.63;5034623;28;20454;-40
2024/03/13 02:22:04;;;;;;;3.45;2.40;;;;;;;12.01;76.04;98969.59;5037803;28;20021;-40
2024/03/13 02:24:30;;;;;;;3.05;2.30;;;;;;;11.69;78.01;98975.19;5034518;28;20040;-40
2024/03/13 02:26:55;;;;;;;3.00;2.25;;;;;;;11.64;78.01;98972.44;5034407;28;20041;-40
2024/03/13 02:29:20;;;;;;;4.63;2.30;;;;;;;11.71;76.91;98978.47;5033892;28;20386;-40
2024/03/13 02:31:46;;;;;;;2.50;2.10;;;;;;;11.71;76.90;98978.47;5034223;28;20064;-40
2024/03/13 02:34:13;;;;;;;2.88;2.08;;;;;;;11.43;77.63;98979.91;5034364;28;20021;-40
2024/03/13 02:36:38;;;;;;;2.75;1.95;;;;;;;11.47;77.04;98982.94;5034374;28;20034;-28
2024/03/13 02:39:04;;;;;;;2.42;1.80;;;;;;;11.37;77.20;98983.50;5033699;28;20022;-27
2024/03/13 02:41:31;;;;;;;2.33;1.85;;;;;;;11.35;76.06;98980.25;5040870;28;20021;-27
2024/03/13 02:43:57;;;;;;;2.47;1.90;;;;;;;11.38;76.27;98971.78;5054322;28;20101;-27
2024/03/13 02:46:23;;;;;;;2.13;1.75;;;;;;;11.47;75.26;98983.75;5054173;28;20108;-27
2024/03/13 02:48:48;;;;;;;2.13;1.50;;;;;;;11.42;75.26;98972.13;5053867;28;20100;-26
2024/03/13 02:51:15;;;;;;;2.60;1.60;;;;;;;11.37;75.71;98972.84;5054005;28;20480;-27
2024/03/13 02:53:41;;;;;;;3.00;1.70;;;;;;;11.39;75.00;98975.28;5053064;28;20096;-27
2024/03/13 02:56:09;;;;;;;2.30;1.65;;;;;;;11.67;74.60;98975.47;5036550;28;20036;-28
2024/03/13 02:58:35;;;;;;;1.90;1.50;;;;;;;11.66;74.26;98975.69;5044594;28;20071;-27
2024/03/13 03:01:01;;;;;;;2.70;1.67;;;;;;;11.50;74.44;98985.97;5053830;28;20029;-27
2024/03/13 03:03:30;;;;;;;4.68;1.90;;;;;;;11.72;74.30;98982.75;5054110;28;20056;-26
2024/03/13 03:05:55;;;;;;;2.78;1.65;;;;;;;11.66;74.37;98981.00;5053342;28;20061;-28
2024/03/13 03:08:22;;;;;;;4.63;1.80;;;;;;;11.51;75.35;98987.56;5053267;28;20064;-27
2024/03/13 03:10:47;;;;;;;2.38;1.70;;;;;;;11.22;75.94;98965.25;5053448;28;20067;-27
2024/03/13 03:13:13;;;;;;;2.60;1.90;;;;;;;11.30;77.26;98986.22;5053639;28;20029;-27
2024/03/13 03:15:39;;;;;;;2.40;1.80;;;;;;;11.36;78.13;98989.84;5053298;28;20401;-27
2024/03/13 03:18:04;;;;;;;1.85;1.60;;;;;;;10.96;80.87;98988.50;5053312;28;20025;-27
2024/03/13 03:20:29;;;;;;;4.13;1.90;;;;;;;11.12;80.88;98980.97;5053391;28;20040;-26
2024/03/13 03:22:55;;;;;;;2.30;1.42;;;;;;;11.08;80.58;98977.94;5053223;28;20389;-25
2024/03/13 03:25:21;;;;;;;2.30;1.42;;;;;;;11.29;79.94;98981.13;5053527;28;20436;-26
2024/03/13 03:27:46;;;;;;;2.55;1.60;;;;;;;11.01;80.94;98981.72;5052291;28;20417;-26
2024/03/13 03:30:11;;;;;;;2.80;1.58;;;;;;;11.07;80.93;98978.97;5053271;28;20029;-26
2024/03/13 03:32:37;;;;;;;2.15;1.60;;;;;;;10.91;79.94;98983.06;5053121;28;20025;-26
2024/03/13 03:35:04;;;;;;;1.75;1.52;;;;;;;10.93;79.31;98972.22;5051906;28;20025;-26
2024/03/13 03:37:31;;;;;;;3.90;1.30;;;;;;;10.92;79.06;98984.69;5053126;28;20035;-26
2024/03/13 03:39:56;;;;;;;1.77;1.38;;;;;;;11.30;77.69;98978.25;5053057;28;20474;-27
2024/03/13 03:42:24;;;;;;;2.28;1.50;;;;;;;11.42;76.82;98980.13;5053408;28;20035;-27
2024/03/13 03:44:49;;;;;;;2.60;1.50;;;;;;;10.97;77.86;98978.69;5053072;28;20489;-27
2024/03/13 03:47:15;;;;;;;1.75;1.40;;;;;;;11.03;77.71;98982.31;5052798;28;20187;-26
2024/03/13 03:49:41;;;;;;;4.68;1.50;;;;;;;11.11;77.05;98992.66;5052457;28;20104;-26
2024/03/13 03:52:07;;;;;;;3.65;1.55;;;;;;;11.29;76.26;98989.94;5052280;28;20457;-26
2024/03/13 03:54:34;;;;;;;2.50;1.60;;;;;;;11.47;76.08;98990.94;5052049;28;20033;-26
2024/03/13 03:57:00;;;;;;;2.13;1.60;;;;;;;11.45;76.06;98985.00;5052499;28;20108;-26
2024/03/13 03:59:25;;;;;;;2.15;1.67;;;;;;;11.23;75.67;98990.03;5052240;28;20104;-26
2024/03/13 04:01:50;;;;;;;1.92;1.45;;;;;;;11.18;75.87;98995.25;5052412;28;20104;-26
2024/03/13 04:04:16;;;;;;;3.50;1.52;;;;;;;11.40;74.78;98995.53;5052254;28;20028;-26
2024/03/13 04:06:41;;;;;;;2.08;1.65;;;;;;;11.51;74.92;98998.22;5052483;28;20024;-26
2024/03/13 04:09:14;;;;;;;2.70;1.58;;;;;;;11.30;75.68;98996.88;5052501;28;20051;-28
2024/03/13 04:11:43;;;;;;;3.60;1.63;;;;;;;11.25;75.52;98987.94;5052063;28;20036;-27
2024/03/13 04:14:10;;;;;;;2.45;1.70;;;;;;;11.53;74.47;99000.66;5052243;28;20025;-26
2024/03/13 04:16:37;;;;;;;1.63;1.50;;;;;;;11.29;75.02;98997.09;5052160;28;20099;-27
2024/03/13 04:19:02;;;;;;;2.40;1.60;;;;;;;11.35;74.38;98999.69;5050889;28;20461;-27
2024/03/13 04:21:28;;;;;;;2.35;1.60;;;;;;;11.51;73.49;99000.09;5051529;28;20105;-27
2024/03/13 04:23:54;;;;;;;1.83;1.50;;;;;;;11.38;73.61;99000.28;5051789;28;20107;-27
2024/03/13 04:26:20;;;;;;;2.85;2.03;;;;;;;11.37;73.34;98999.47;5052287;28;20028;-27
2024/03/13 04:28:45;;;;;;;3.40;1.67;;;;;;;11.48;73.15;99000.53;5051611;28;20241;-27
2024/03/13 04:31:13;;;;;;;2.92;1.95;;;;;;;11.47;73.00;98997.06;5051795;28;20043;-27
2024/03/13 04:33:40;;;;;;;2.17;1.73;;;;;;;11.55;72.26;98998.59;5051897;28;20021;-27
2024/03/13 04:36:06;;;;;;;2.80;1.85;;;;;;;11.55;73.03;99004.72;5045092;28;20025;-27
2024/03/13 04:38:31;;;;;;;2.58;1.90;;;;;;;11.53;72.21;99006.81;5032006;28;20430;-26
2024/03/13 04:40:56;;;;;;;2.88;1.70;;;;;;;11.33;72.86;99011.63;5031830;28;20033;-26
2024/03/13 04:43:22;;;;;;;2.95;1.90;;;;;;;11.15;73.47;99007.13;5031959;28;20022;-26
2024/03/13 04:45:47;;;;;;;2.17;1.70;;;;;;;11.29;73.73;99008.59;5031813;28;20021;-26
2024/03/13 04:48:13;;;;;;;2.40;1.92;;;;;;;11.18;73.51;99009.34;5031894;28;20022;-26
2024/03/13 04:50:38;;;;;;;2.22;1.60;;;;;;;10.90;75.12;98999.25;5032022;28;20037;-27
2024/03/13 04:53:05;;;;;;;2.38;1.70;;;;;;;10.80;76.11;99010.44;5034016;28;20548;-27
2024/03/13 04:55:30;;;;;;;2.83;1.80;;;;;;;11.47;80.58;99010.38;5051752;28;20398;-27
2024/03/13 04:57:56;;;;;;;2.70;1.88;;;;;;;11.27;74.53;99013.34;5051680;28;20045;-27
2024/03/13 05:00:25;;;;;;;3.47;1.83;;;;;;;11.18;75.49;99009.34;5051471;28;20036;-27
2024/03/13 05:02:51;;;;;;;2.73;1.53;;;;;;;10.94;75.53;99017.22;5051722;28;20052;-27
2024/03/13 05:05:17;;;;;;;2.25;1.77;;;;;;;10.96;75.52;99012.47;5051736;28;20064;-27
2024/03/13 05:07:43;;;;;;;2.05;1.85;;;;;;;11.04;74.97;99019.38;5051815;28;20021;-28
2024/03/13 05:10:09;;;;;;;3.92;2.17;;;;;;;10.93;75.33;99012.94;5051797;28;20025;-27
2024/03/13 05:12:36;;;;;;;3.13;2.00;;;;;;;11.00;74.98;99012.03;5051603;28;20112;-27
2024/03/13 05:15:08;;;;;;;3.13;2.10;;;;;;;11.10;75.25;99017.63;5051777;28;20021;-28
2024/03/13 05:17:36;;;;;;;3.30;2.50;;;;;;;11.35;73.94;99026.34;5042313;28;20021;-26
2024/03/13 05:20:06;;;;;;;4.38;2.25;;;;;;;11.23;73.68;99024.66;5047388;28;20036;-27
2024/03/13 05:22:33;;;;;;;2.95;2.10;;;;;;;11.06;74.02;99005.81;5043020;28;20043;-27
2024/03/13 05:24:59;;;;;;;3.28;2.42;;;;;;;11.39;74.01;99033.88;5051687;28;20056;-27
2024/03/13 05:27:24;;;;;;;2.15;1.92;;;;;;;11.25;74.54;99028.72;5051423;28;20094;-26
2024/03/13 05:29:50;;;;;;;2.75;1.92;;;;;;;11.20;74.63;99028.59;5051270;28;20107;-28
2024/03/13 05:32:16;;;;;;;3.55;2.30;;;;;;;11.38;75.08;99032.25;5049564;28;20665;-28
2024/03/13 05:34:41;;;;;;;2.88;2.00;;;;;;;11.35;74.21;99034.31;5040436;28;20057;-28
2024/03/13 05:37:10;;;;;;;3.15;2.10;;;;;;;11.61;73.43;99040.31;5042345;28;20028;-28
2024/03/13 05:39:35;;;;;;;2.70;1.90;;;;;;;11.44;74.06;99044.66;5039873;28;20043;-27
2024/03/13 05:42:01;;;;;;;3.50;2.08;;;;;;;11.67;73.78;99033.25;5036775;28;20533;-26
2024/03/13 05:44:27;;;;;;;2.70;1.92;;;;;;;11.47;74.01;99042.34;5042907;28;20583;-27
2024/03/13 05:46:53;;;;;;;4.72;2.10;;;;;;;11.46;74.96;99043.41;5040743;28;20021;-26
2024/03/13 05:49:18;;;;;;;3.50;2.28;;;;;;;11.70;73.97;99048.81;5037878;28;20031;-27
2024/03/13 05:51:44;;;;;;;2.83;2.05;;;;;;;11.46;74.76;99054.06;5046340;28;20051;-27
2024/03/13 05:54:09;;;;;;;2.42;1.80;;;;;;;11.45;74.27;99047.09;5042518;28;20022;-28
2024/03/13 05:56:35;;;;;;;2.90;1.95;;;;;;;11.16;74.94;99059.38;5048330;28;20049;-27
2024/03/13 05:59:00;;;;;;;3.35;2.58;;;;;;;11.49;74.78;99063.44;5046745;28;20438;-27
2024/03/13 06:01:28;;;;;;;3.58;2.20;;;;;;;11.50;75.27;99065.09;5046405;28;20021;-40
2024/03/13 06:03:53;;;;;;;2.72;1.90;;;;;;;11.68;73.61;99069.53;5045894;28;20025;-40
2024/03/13 06:06:25;;;;;;;3.63;2.13;;;;;;;11.84;72.44;99068.06;5045009;28;20549;-40
2024/03/13 06:08:51;;;;;;;4.70;2.10;;;;;;;11.72;73.34;99070.72;5051204;28;20564;-39
2024/03/13 06:11:18;;;;;;;2.28;1.85;;;;;;;11.90;72.35;99076.00;5054152;28;20111;-40
2024/03/13 06:13:46;;;;;;;2.55;1.75;;;;;;;11.89;72.89;99073.53;5053753;28;20512;-41
2024/03/13 06:16:13;;;;;;;2.95;1.88;;;;;;;12.17;71.53;99078.25;5053851;28;20477;-40
2024/03/13 06:18:40;;;;;;;2.75;2.30;;;;;;;11.95;72.49;99080.66;5054100;28;20024;-40
2024/03/13 06:21:07;;;;;;;4.47;2.10;;;;;;;12.19;71.80;99084.19;5053953;28;20525;-39
2024/03/13 06:23:32;;;;;;;2.97;2.00;;;;;;;12.84;69.88;99080.59;5053701;28;20063;-40
2024/03/13 06:25:58;;;;;;;2.67;2.03;;;;;;;12.97;68.78;99092.88;5054364;28;20061;-41
2024/03/13 06:31:08;;;;;;;2.92;1.90;;;;;;;13.87;66.00;99080.72;5054048;28;20110;-41
2024/03/13 06:33:33;;;;;;;3.40;1.70;;;;;;;14.38;64.13;99085.31;5054161;28;20033;-40
2024/03/13 06:35:59;;;;;;;2.28;1.63;;;;;;;14.70;63.15;99093.59;5053631;28;20016;-45
2024/03/13 06:38:24;;;;;;;2.25;1.80;;;;;;;14.72;62.85;99101.38;5053403;28;20079;-41
2024/03/13 06:40:50;;;;;;;2.25;1.60;;;;;;;15.54;60.68;99089.78;5053387;28;20017;-40
2024/03/13 06:43:16;;;;;;;1.95;1.50;;;;;;;15.75;59.78;99093.53;5053472;28;20025;-40
2024/03/13 06:45:47;;;;;;;2.97;1.70;;;;;;;15.53;59.50;99103.44;5053458;28;20033;-41
2024/03/13 06:48:13;;;;;;;1.77;1.33;;;;;;;14.96;60.72;99094.72;5053023;28;20447;-26
2024/03/13 06:50:38;;;;;;;2.33;1.30;;;;;;;15.05;60.88;99101.28;5053606;28;20028;-28
2024/03/13 06:53:04;;;;;;;1.90;1.52;;;;;;;15.55;59.88;99099.44;5053724;28;20107;-28
2024/03/13 06:55:30;;;;;;;2.00;1.65;;;;;;;15.40;59.82;99101.97;5053657;28;20025;-28
2024/03/13 06:57:55;;;;;;;2.22;1.60;;;;;;;15.42;59.78;99102.50;5053888;28;20444;-27
2024/03/13 07:00:21;;;;;;;2.10;1.30;;;;;;;15.51;59.01;99100.22;5053890;28;20059;-30
2024/03/13 07:02:47;;;;;;;1.83;1.55;;;;;;;15.74;58.40;99101.81;5038576;28;20453;-29
2024/03/13 07:05:12;;;;;;;3.67;1.90;;;;;;;16.28;57.36;99109.84;5038089;28;20517;-28
2024/03/13 07:07:42;;;;;;;4.07;1.70;;;;;;;17.00;54.93;99116.53;5033284;28;20032;-28
2024/03/13 07:10:10;;;;;;;3.25;1.50;;;;;;;17.32;53.08;99118.28;5032783;28;20489;-28
2024/03/13 07:12:37;;;;;;;3.88;1.50;;;;;;;17.17;54.01;99121.72;5033102;28;20501;-28
2024/03/13 07:15:04;;;;;;;1.98;1.67;;;;;;;17.50;53.47;99124.28;5033051;28;20071;-31
2024/03/13 07:17:30;;;;;;;3.05;1.67;;;;;;;17.70;52.40;99129.69;5032342;28;20018;-27
2024/03/13 07:19:55;;;;;;;2.25;1.67;;;;;;;17.66;52.50;99123.22;5031790;28;20025;-29
2024/03/13 07:22:21;;;;;;;5.03;1.92;;;;;;;17.86;52.29;99127.91;5031354;28;20486;-29
2024/03/13 07:24:46;;;;;;;2.25;1.80;;;;;;;18.35;51.00;99123.88;5031688;28;20034;-42
2024/03/13 07:27:11;;;;;;;3.13;1.55;;;;;;;18.85;49.19;99132.22;5031474;28;20116;-41
2024/03/13 07:29:39;;;;;;;5.43;1.83;;;;;;;18.72;49.16;99128.19;5031318;28;20126;-40
2024/03/13 07:32:05;;;;;;;2.42;1.70;;;;;;;18.59;50.44;99126.03;5031594;28;20346;-40
2024/03/13 07:34:31;;;;;;;3.67;1.75;;;;;;;19.06;49.23;99138.41;5031719;28;20025;-41
2024/03/13 07:36:56;;;;;;;2.42;1.90;;;;;;;18.97;48.88;99135.44;5031997;28;20032;-41
2024/03/13 07:39:22;;;;;;;4.88;1.80;;;;;;;18.88;49.15;99127.09;5031743;28;20028;-42
2024/03/13 07:41:47;;;;;;;2.78;1.80;;;;;;;18.46;49.59;99135.47;5031733;28;20078;-41
2024/03/13 07:44:13;;;;;;;2.13;1.77;;;;;;;18.86;49.10;99137.34;5031931;28;20029;-40
2024/03/13 07:46:39;;;;;;;3.17;1.65;;;;;;;18.12;50.23;99138.69;5031771;28;20032;-42
2024/03/13 07:49:04;;;;;;;2.22;1.70;;;;;;;17.43;51.91;99135.28;5031382;28;20028;-41
2024/03/13 07:51:29;;;;;;;2.28;1.70;;;;;;;17.78;51.41;99131.06;5038764;28;20117;-41
2024/03/13 07:53:55;;;;;;;4.15;1.90;;;;;;;18.88;49.41;99131.69;5047081;28;20091;-42
2024/03/13 07:56:20;;;;;;;3.30;1.88;;;;;;;17.90;50.89;99134.38;5052217;28;20033;-42
2024/03/13 07:58:45;;;;;;;3.47;2.00;;;;;;;17.50;51.61;99133.16;5052296;28;20104;-42
2024/03/13 08:01:11;;;;;;;3.60;2.63;;;;;;;17.70;52.41;99128.91;5052396;28;20082;-41
2024/03/13 08:03:36;;;;;;;4.15;2.60;;;;;;;17.51;55.14;99137.44;5052236;28;20041;-45
2024/03/13 08:06:01;;;;;;;4.65;2.50;;;;;;;17.72;53.11;99132.94;5052208;28;20496;-41
2024/03/13 08:08:27;;;;;;;5.75;2.58;;;;;;;17.62;54.08;99140.97;5041069;28;20338;-42
2024/03/13 08:10:52;;;;;;;5.93;2.70;;;;;;;17.30;53.19;99138.44;5042001;28;20407;-41
2024/03/13 08:13:17;;;;;;;3.88;2.50;;;;;;;17.79;53.04;99120.03;5031943;28;20057;-42
2024/03/13 08:15:43;;;;;;;2.67;2.15;;;;;;;17.87;51.55;99126.81;5042719;28;20108;-41
2024/03/13 08:18:15;;;;;;;5.75;2.55;;;;;;;18.09;52.69;99125.78;5051793;28;20366;-27
2024/03/13 08:20:41;;;;;;;42.58;32.53;;;;;;;18.46;52.81;99135.47;5051094;28;20461;-27
2024/03/13 08:23:08;;;;;;;7.25;4.57;;;;;;;17.92;51.56;99116.06;5051771;28;20507;-28
2024/03/13 08:25:34;;;;;;;15.90;10.20;;;;;;;18.19;52.65;99133.06;5051972;28;20554;-28
2024/03/13 08:27:59;;;;;;;5.85;4.28;;;;;;;17.67;52.27;99127.56;5052005;28;20048;-28
2024/03/13 08:30:26;;;;;;;7.63;5.05;;;;;;;17.90;52.48;99128.97;5051611;28;20575;-29
2024/03/13 08:32:53;;;;;;;9.35;5.25;;;;;;;18.44;53.07;99134.94;5051420;28;20053;-28
2024/03/13 08:35:18;;;;;;;6.35;3.45;;;;;;;18.00;49.22;99128.19;5052001;28;20020;-30
2024/03/13 08:37:44;;;;;;;7.13;3.50;;;;;;;18.07;51.02;99120.66;5051424;28;20444;-42
2024/03/13 08:40:11;;;;;;;5.43;3.70;;;;;;;18.23;51.14;99128.75;5039470;28;20071;-44
2024/03/13 08:42:40;;;;;;;4.38;3.10;;;;;;;17.99;50.58;99126.56;5042509;28;20036;-27
2024/03/13 08:45:08;;;;;;;5.80;3.10;;;;;;;17.99;48.71;99131.94;5044393;28;20044;-28
2024/03/13 08:47:41;;;;;;;5.55;3.13;;;;;;;17.40;49.73;99122.34;5043244;28;20040;-28
2024/03/13 08:50:07;;;;;;;6.65;3.00;;;;;;;18.12;49.31;99125.22;5038674;28;20029;-29
2024/03/13 08:52:34;;;;;;;5.55;3.30;;;;;;;18.23;48.33;99126.06;5041827;28;20032;-28
2024/03/13 08:55:01;;;;;;;5.05;2.97;;;;;;;17.97;49.49;99139.47;5040263;28;20068;-28
2024/03/13 08:57:26;;;;;;;4.32;3.10;;;;;;;17.04;50.58;99140.19;5041322;28;20321;-38
2024/03/13 08:59:52;;;;;;;4.30;3.30;;;;;;;16.80;50.91;99132.50;5035820;28;20119;-38
2024/03/13 09:02:17;;;;;;;5.65;3.10;;;;;;;17.38;50.85;99141.44;5028399;28;20600;-40
2024/03/13 09:04:42;;;;;;;4.20;3.20;;;;;;;17.44;49.91;99134.22;5030129;28;20021;-40
2024/03/13 09:07:10;;;;;;;5.72;3.13;;;;;;;18.19;49.34;99131.16;5030411;28;20075;-42
2024/03/13 09:09:38;;;;;;;4.50;3.35;;;;;;;18.78;48.14;99137.06;5030375;28;20101;-42
2024/03/13 09:12:07;;;;;;;4.40;3.00;;;;;;;18.64;47.10;99134.09;5030270;28;20083;-41
2024/03/13 09:14:36;;;;;;;19.05;3.80;;;;;;;18.87;47.74;99136.28;5029792;28;20032;-40
2024/03/13 09:17:04;;;;;;;4.05;3.00;;;;;;;18.31;48.27;99131.69;5030199;28;20096;-38
2024/03/13 09:19:30;;;;;;;4.28;3.00;;;;;;;18.11;49.68;99131.72;5030128;28;20049;-41
2024/03/13 09:21:55;;;;;;;4.90;3.40;;;;;;;18.15;49.31;99132.78;5034674;28;20086;-40
2024/03/13 09:24:21;;;;;;;4.38;3.28;;;;;;;17.82;49.45;99131.34;5049824;28;20029;-39
2024/03/13 09:26:46;;;;;;;4.90;3.05;;;;;;;17.13;50.15;99141.31;5049423;28;20237;-40
2024/03/13 09:29:14;;;;;;;5.88;3.80;;;;;;;16.46;52.29;99132.78;5049649;28;20517;-42
2024/03/13 09:31:42;;;;;;;3.83;3.40;;;;;;;17.20;50.67;99126.56;5049945;28;20155;-44
2024/03/13 09:34:10;;;;;;;3.92;3.45;;;;;;;17.21;49.91;99127.41;5048205;28;20497;-41
2024/03/13 09:36:36;;;;;;;3.67;2.95;;;;;;;16.78;49.63;99130.06;5050545;28;20029;-42
2024/03/13 09:39:03;;;;;;;5.05;3.42;;;;;;;17.07;50.28;99118.97;5045976;28;20020;-40
2024/03/13 09:41:29;;;;;;;5.78;3.38;;;;;;;17.71;48.65;99115.19;5038315;28;20025;-41
2024/03/13 09:43:54;;;;;;;5.25;3.65;;;;;;;18.07;46.96;99117.16;5049839;28;20492;-41
2024/03/13 09:46:21;;;;;;;4.10;3.10;;;;;;;17.76;47.71;99111.69;5049572;28;20063;-40
2024/03/13 09:48:48;;;;;;;7.38;3.42;;;;;;;17.54;47.48;99122.69;5044335;28;20030;-39
2024/03/13 09:51:13;;;;;;;4.07;3.38;;;;;;;17.49;48.17;99128.81;5050366;28;20032;-40
2024/03/13 09:53:41;;;;;;;9.68;3.97;;;;;;;18.16;47.86;99121.75;5050143;28;20024;-41
2024/03/13 09:56:13;;;;;;;6.13;3.40;;;;;;;17.65;47.44;99099.28;5049820;28;20025;-41
2024/03/13 09:58:44;;;;;;;6.60;3.60;;;;;;;18.42;46.35;99123.63;5050024;28;20424;-36
2024/03/13 10:01:24;;;;;;;5.30;3.28;;;;;;;16.97;48.49;99119.72;5048089;28;20040;-30
2024/03/13 10:03:59;;;;;;;7.07;3.47;;;;;;;16.67;49.53;99120.31;5050316;28;20078;-26
2024/03/13 10:06:26;;;;;;;6.03;3.78;;;;;;;16.30;51.12;99118.44;5050782;28;20263;-28
2024/03/13 10:08:53;;;;;;;4.03;3.33;;;;;;;15.81;52.74;99115.84;5050379;28;20021;-29
2024/03/13 10:11:23;;;;;;;4.93;3.63;;;;;;;16.27;51.80;99118.94;5050617;28;20341;-28
2024/03/13 10:13:50;;;;;;;5.60;3.47;;;;;;;16.54;50.53;99118.88;5050477;28;20040;-30
2024/03/13 10:16:17;;;;;;;6.30;3.45;;;;;;;16.54;50.12;99110.81;5036879;28;20079;-29
2024/03/13 10:18:49;;;;;;;4.82;3.45;;;;;;;16.35;51.72;99106.94;5044120;28;20013;-42
2024/03/13 10:21:25;;;;;;;4.38;3.42;;;;;;;16.33;51.43;99106.38;5042565;28;20079;-41
2024/03/13 10:23:52;;;;;;;4.57;3.05;;;;;;;16.48;51.83;99111.88;5046780;28;20021;-43
2024/03/13 10:26:20;;;;;;;3.75;3.22;;;;;;;17.05;49.83;99107.69;5032911;28;20132;-42
2024/03/13 10:28:47;;;;;;;4.45;3.50;;;;;;;16.12;51.81;99100.03;5030746;28;20152;-41
2024/03/13 10:31:15;;;;;;;4.82;3.60;;;;;;;16.29;52.79;99105.28;5050028;28;20105;-40
2024/03/13 10:33:41;;;;;;;4.07;3.45;;;;;;;16.35;52.46;99096.19;5050199;28;20029;-42
2024/03/13 10:36:07;;;;;;;5.57;3.70;;;;;;;16.51;52.33;99084.50;5050054;28;20083;-42
2024/03/13 10:38:37;;;;;;;4.57;3.72;;;;;;;17.16;51.46;99098.59;5053737;28;20112;-41
2024/03/13 10:41:03;;;;;;;4.85;3.92;;;;;;;17.59;49.71;99080.47;5054056;28;20082;-44
2024/03/13 10:43:32;;;;;;;5.35;3.90;;;;;;;17.02;50.90;99081.34;5053909;28;20021;-42
2024/03/13 10:45:57;;;;;;;5.38;3.50;;;;;;;17.21;51.02;99068.25;5040286;28;20492;-41
2024/03/13 10:48:26;;;;;;;5.95;3.50;;;;;;;17.38;50.76;99062.63;5039125;28;20017;-41
2024/03/13 10:50:53;;;;;;;4.82;3.40;;;;;;;16.80;52.82;99063.44;5053574;28;20485;-41
2024/03/13 10:53:21;;;;;;;4.93;3.75;;;;;;;17.45;51.66;99065.09;5053481;28;20033;-40
2024/03/13 10:55:47;;;;;;;4.63;3.75;;;;;;;18.31;49.08;99061.66;5053991;28;20021;-40
2024/03/13 10:58:22;;;;;;;4.65;3.50;;;;;;;17.81;49.41;99060.56;5053248;28;20028;-41
2024/03/13 11:00:48;;;;;;;3.60;3.10;;;;;;;17.41;48.53;99048.66;5050941;28;20068;-44
2024/03/13 11:03:13;;;;;;;3.45;3.13;;;;;;;17.87;48.00;99051.44;5052634;28;20021;-39
2024/03/13 11:05:39;;;;;;;4.10;2.97;;;;;;;18.40;45.68;99051.16;5052480;28;20025;-38
2024/03/13 11:08:08;;;;;;;3.67;3.22;;;;;;;18.47;44.87;99053.59;5052439;28;20299;-41
2024/03/13 11:10:36;;;;;;;3.35;2.97;;;;;;;18.30;45.61;99053.88;5052764;28;20036;-40
2024/03/13 11:13:09;;;;;;;3.70;3.20;;;;;;;18.69;44.39;99042.47;5053550;28;20029;-39
2024/03/13 11:15:37;;;;;;;4.53;2.97;;;;;;;18.02;45.12;99039.09;5053237;28;20568;-41
2024/03/13 11:18:04;;;;;;;3.50;3.10;;;;;;;17.74;45.08;99044.69;5053423;28;20021;-39
2024/03/13 11:20:48;;;;;;;5.15;3.53;;;;;;;17.65;45.41;99040.09;5053518;28;20452;-41
2024/03/13 11:23:20;;;;;;;4.05;3.20;;;;;;;18.39;43.78;99046.06;5052855;28;20027;-38
2024/03/13 11:25:49;;;;;;;3.85;3.15;;;;;;;18.57;43.81;99037.41;5053110;28;20416;-40
2024/03/13 11:28:36;;;;;;;5.15;3.38;;;;;;;17.93;45.20;99036.94;5052972;28;20080;-40
2024/03/13 11:31:05;;;;;;;4.43;3.50;;;;;;;18.72;43.89;99044.66;5053446;28;20025;-42
2024/03/13 11:33:31;;;;;;;4.25;3.40;;;;;;;17.98;44.76;99045.00;5052735;28;20024;-44
2024/03/13 11:35:58;;;;;;;4.05;3.30;;;;;;;17.51;45.89;99024.47;5053087;28;20025;-40
2024/03/13 11:38:24;;;;;;;3.38;3.03;;;;;;;17.33;46.98;99038.44;5053016;28;20104;-42
2024/03/13 11:40:54;;;;;;;3.60;3.10;;;;;;;18.18;44.53;99029.91;5040310;28;20476;-43
2024/03/13 11:43:25;;;;;;;3.83;3.28;;;;;;;18.30;43.67;99037.72;5033029;28;20087;-46
2024/03/13 11:45:51;;;;;;;8.52;3.20;;;;;;;17.99;44.88;99026.97;5050225;28;20035;-40
2024/03/13 11:48:19;;;;;;;3.40;2.97;;;;;;;17.55;46.16;99030.13;5049206;28;20018;-44
2024/03/13 11:51:00;;;;;;;4.45;3.20;;;;;;;17.86;45.02;99027.50;5032394;28;20481;-41